Time;durP1;ratioP1;P1;durP2;ratioP2;P2;SDS_P1;SDS_P2;PMS_P1;PMS_P2;Temp;Humidity;BMP_temperature;BMP_pressure;BME280_temperature;BME280_humidity;BME280_pressure;Samples;Min_cycle;Max_cycle;Signal;HPM_P1;HPM_P2
2021/12/27 00:01:35;;;;;;;19.23;6.28;;;2.60;99.90;;;;;;10241170;28;20050;-63
2021/12/27 00:06:37;;;;;;;15.07;5.13;;;2.60;99.90;;;;;;10248152;28;20054;-63
2021/12/27 00:11:40;;;;;;;12.48;4.47;;;2.60;99.90;;;;;;10241560;28;23072;-63
2021/12/27 00:16:41;;;;;;;15.90;4.47;;;2.60;99.90;;;;;;10248702;28;20055;-64
2021/12/27 00:21:43;;;;;;;15.05;4.88;;;2.60;99.90;;;;;;10244159;28;20133;-64
2021/12/27 00:26:45;;;;;;;9.35;3.58;;;2.60;99.90;;;;;;10246412;28;20149;-64
2021/12/27 00:31:47;;;;;;;14.10;4.05;;;2.60;99.90;;;;;;10243392;28;20165;-65
2021/12/27 00:36:48;;;;;;;13.93;4.18;;;2.70;99.90;;;;;;10242497;28;20055;-65
2021/12/27 00:41:50;;;;;;;11.27;4.45;;;2.70;99.90;;;;;;10245715;28;20087;-65
2021/12/27 00:46:52;;;;;;;6.35;2.78;;;2.70;99.90;;;;;;10238087;28;20043;-65
2021/12/27 00:51:54;;;;;;;9.18;3.08;;;2.70;99.90;;;;;;10243789;28;20082;-65
2021/12/27 00:56:56;;;;;;;10.07;3.85;;;2.70;99.90;;;;;;10247142;28;20114;-65
2021/12/27 01:01:57;;;;;;;8.30;3.00;;;2.80;99.90;;;;;;10243989;28;20113;-65
2021/12/27 01:07:00;;;;;;;13.40;4.68;;;2.80;99.90;;;;;;10236887;28;20522;-65
2021/12/27 01:12:24;;;;;;;9.13;2.92;;;2.80;99.90;;;;;;10241467;28;20084;-65
2021/12/27 01:17:25;;;;;;;9.00;3.38;;;2.90;99.90;;;;;;10249498;28;20087;-65
2021/12/27 01:22:27;;;;;;;9.18;2.92;;;2.90;99.90;;;;;;10256120;28;20078;-65
2021/12/27 01:27:29;;;;;;;8.02;3.35;;;2.90;99.90;;;;;;10247404;28;20051;-65
2021/12/27 01:32:36;;;;;;;10.85;3.42;;;2.90;99.90;;;;;;10252423;28;20393;-65
2021/12/27 01:37:38;;;;;;;7.63;3.10;;;2.90;99.90;;;;;;10255395;28;20047;-65
2021/12/27 01:43:09;;;;;;;9.80;3.72;;;3.00;99.90;;;;;;10250659;28;20059;-65
2021/12/27 01:48:12;;;;;;;9.13;2.97;;;3.00;99.90;;;;;;10239199;28;20585;-63
2021/12/27 01:53:15;;;;;;;9.20;3.45;;;3.00;99.90;;;;;;10247936;28;20231;-63
2021/12/27 01:58:18;;;;;;;9.45;3.42;;;3.00;99.90;;;;;;10250502;28;20135;-63
2021/12/27 02:03:22;;;;;;;11.40;3.75;;;3.00;99.90;;;;;;10252377;28;20051;-64
2021/12/27 02:08:24;;;;;;;10.60;3.80;;;3.00;99.90;;;;;;10251946;28;20134;-63
2021/12/27 02:13:26;;;;;;;7.78;2.90;;;3.00;99.90;;;;;;10255785;28;20086;-63
2021/12/27 02:18:28;;;;;;;11.10;2.90;;;3.00;99.90;;;;;;10249653;28;20138;-63
2021/12/27 02:23:29;;;;;;;9.70;3.65;;;3.10;99.90;;;;;;10255982;28;20733;-63
2021/12/27 02:28:31;;;;;;;10.80;3.13;;;3.00;99.90;;;;;;10214540;28;20369;-63
2021/12/27 02:33:38;;;;;;;12.38;3.63;;;3.00;99.90;;;;;;10247256;28;20102;-63
2021/12/27 02:38:42;;;;;;;9.80;3.60;;;3.00;99.90;;;;;;10246249;28;20063;-64
2021/12/27 02:43:43;;;;;;;7.97;3.22;;;3.00;99.90;;;;;;10246369;28;20058;-63
2021/12/27 02:48:48;;;;;;;12.48;3.78;;;3.00;99.90;;;;;;10250456;28;20058;-63
2021/12/27 02:53:50;;;;;;;8.20;2.75;;;3.10;99.90;;;;;;10243963;28;20051;-64
2021/12/27 02:58:52;;;;;;;9.68;3.85;;;3.00;99.90;;;;;;10248130;28;20102;-64
2021/12/27 03:03:54;;;;;;;13.55;4.55;;;3.10;99.90;;;;;;10243218;28;20062;-64
2021/12/27 03:08:57;;;;;;;12.75;4.47;;;3.10;99.90;;;;;;10249204;28;20541;-64
2021/12/27 03:13:58;;;;;;;11.73;4.00;;;3.10;99.90;;;;;;10246635;28;20656;-64
2021/12/27 03:19:00;;;;;;;9.95;4.13;;;3.20;99.90;;;;;;10245815;28;20652;-64
2021/12/27 03:24:02;;;;;;;6.28;3.08;;;3.10;99.90;;;;;;10245169;28;20145;-64
2021/12/27 03:29:04;;;;;;;11.70;4.00;;;3.20;99.90;;;;;;10246926;28;20074;-64
2021/12/27 03:34:06;;;;;;;12.93;3.85;;;3.20;99.90;;;;;;10250030;28;20073;-64
2021/12/27 03:39:10;;;;;;;8.35;3.38;;;3.20;99.90;;;;;;10244945;28;20118;-64
2021/12/27 03:44:11;;;;;;;13.63;3.47;;;3.20;99.90;;;;;;10249242;28;20134;-64
2021/12/27 03:49:13;;;;;;;7.70;3.30;;;3.20;99.90;;;;;;10246025;28;20571;-64
2021/12/27 03:54:15;;;;;;;10.52;3.88;;;3.20;99.90;;;;;;10245581;28;20050;-64
2021/12/27 03:59:23;;;;;;;12.02;3.67;;;3.30;99.90;;;;;;10245318;28;20066;-64
2021/12/27 04:04:25;;;;;;;;;;;3.20;99.90;;;;;;10243662;28;20487;-64
2021/12/27 04:09:27;;;;;;;11.50;4.00;;;3.20;99.90;;;;;;10247280;28;19930;-64
2021/12/27 04:14:30;;;;;;;12.52;3.85;;;3.20;99.90;;;;;;10247212;28;20078;-64
2021/12/27 04:19:31;;;;;;;24.05;5.38;;;3.30;99.90;;;;;;10243379;28;20074;-64
2021/12/27 04:24:33;;;;;;;15.85;4.22;;;3.30;99.90;;;;;;10243528;28;20430;-64
2021/12/27 04:29:38;;;;;;;17.33;4.85;;;3.40;99.90;;;;;;10241096;28;20054;-64
2021/12/27 04:34:39;;;;;;;19.40;5.20;;;3.40;99.90;;;;;;10246967;28;20136;-63
2021/12/27 04:39:44;;;;;;;22.27;5.10;;;3.40;99.90;;;;;;10239838;28;20862;-63
2021/12/27 04:44:47;;;;;;;21.23;4.68;;;3.40;99.90;;;;;;10250878;28;20811;-64
2021/12/27 04:49:49;;;;;;;28.48;5.65;;;3.50;99.90;;;;;;10249025;28;20490;-63
2021/12/27 04:54:51;;;;;;;18.05;6.28;;;3.50;99.90;;;;;;10252740;28;20130;-64
2021/12/27 04:59:53;;;;;;;19.58;5.05;;;3.50;99.90;;;;;;10253371;28;20077;-64
2021/12/27 05:04:54;;;;;;;25.05;5.95;;;3.50;99.90;;;;;;10249132;28;20067;-63
2021/12/27 05:09:56;;;;;;;32.63;4.97;;;3.50;99.90;;;;;;10251805;28;20094;-64
2021/12/27 05:14:58;;;;;;;24.65;5.95;;;3.50;99.90;;;;;;10248959;28;20143;-63
2021/12/27 05:20:04;;;;;;;27.95;5.70;;;3.50;99.90;;;;;;10253398;28;20054;-63
2021/12/27 05:25:09;;;;;;;22.23;5.30;;;3.50;99.90;;;;;;10245421;28;20525;-63
2021/12/27 05:30:12;;;;;;;103.65;7.25;;;3.50;99.90;;;;;;10228378;28;20091;-63
2021/12/27 05:35:15;;;;;;;20.85;5.53;;;3.50;99.90;;;;;;10249351;28;20106;-63
2021/12/27 05:40:20;;;;;;;36.50;5.88;;;3.50;99.90;;;;;;10247516;28;20454;-64
2021/12/27 05:45:22;;;;;;;28.35;5.88;;;3.40;99.90;;;;;;10251390;28;20047;-64
2021/12/27 05:50:24;;;;;;;30.45;5.93;;;3.40;99.90;;;;;;10247414;28;20066;-64
2021/12/27 05:55:25;;;;;;;23.77;5.03;;;3.50;99.90;;;;;;10252283;28;20077;-63
2021/12/27 06:00:28;;;;;;;33.13;6.18;;;3.50;99.90;;;;;;10254671;28;20795;-64
2021/12/27 06:05:30;;;;;;;34.10;5.53;;;3.50;99.90;;;;;;10246589;28;20130;-63
2021/12/27 06:10:31;;;;;;;20.63;5.85;;;3.50;99.90;;;;;;10253602;28;20133;-63
2021/12/27 06:15:33;;;;;;;25.80;5.15;;;3.50;99.90;;;;;;10247465;28;20086;-61
2021/12/27 06:20:35;;;;;;;27.38;4.55;;;3.50;99.90;;;;;;10251667;28;20453;-60
2021/12/27 06:25:37;;;;;;;23.05;5.68;;;3.40;99.90;;;;;;10248313;28;20082;-62
2021/12/27 06:30:39;;;;;;;32.95;5.90;;;3.50;99.90;;;;;;10247822;28;20054;-60
2021/12/27 06:35:41;;;;;;;25.65;4.57;;;3.40;99.90;;;;;;10250471;28;20050;-60
2021/12/27 06:40:42;;;;;;;18.08;4.88;;;3.40;99.90;;;;;;10237197;28;20109;-59
2021/12/27 06:45:44;;;;;;;19.80;5.30;;;3.40;99.90;;;;;;10250880;28;20106;-60
2021/12/27 06:50:46;;;;;;;23.77;5.07;;;3.50;99.90;;;;;;10242990;28;20050;-60
2021/12/27 06:55:48;;;;;;;31.27;5.32;;;3.50;99.90;;;;;;10250916;28;20058;-60
2021/12/27 07:00:50;;;;;;;16.67;4.72;;;3.60;99.90;;;;;;10245981;28;20494;-60
2021/12/27 07:05:52;;;;;;;18.10;5.20;;;3.60;99.90;;;;;;10244255;28;20055;-59
2021/12/27 07:10:54;;;;;;;23.55;4.60;;;3.60;99.90;;;;;;10244077;28;20054;-60
2021/12/27 07:15:55;;;;;;;18.20;4.50;;;3.60;99.90;;;;;;10247462;28;20117;-60
2021/12/27 07:20:57;;;;;;;18.92;4.47;;;3.70;99.90;;;;;;10248367;28;20082;-60
2021/12/27 07:25:59;;;;;;;17.13;4.68;;;3.60;99.90;;;;;;10243524;28;20074;-59
2021/12/27 07:31:00;;;;;;;21.30;5.15;;;3.60;99.90;;;;;;10247945;28;20470;-59
2021/12/27 07:36:05;;;;;;;16.25;5.43;;;3.60;99.90;;;;;;10247748;28;20079;-59
2021/12/27 07:41:08;;;;;;;14.60;5.28;;;3.60;99.90;;;;;;10236995;28;20071;-59
2021/12/27 07:46:09;;;;;;;18.70;5.57;;;3.70;99.90;;;;;;10249672;28;20133;-59
2021/12/27 07:51:11;;;;;;;20.50;5.43;;;3.70;99.90;;;;;;10247125;28;20058;-59
2021/12/27 07:56:13;;;;;;;13.10;5.13;;;3.70;99.90;;;;;;10247458;28;20079;-59
2021/12/27 08:01:16;;;;;;;30.08;5.70;;;3.70;99.90;;;;;;10244324;28;20097;-59
2021/12/27 08:06:18;;;;;;;32.17;6.80;;;3.80;99.90;;;;;;10248081;28;20050;-59
2021/12/27 08:11:20;;;;;;;19.48;6.15;;;3.80;99.90;;;;;;10246177;28;20134;-59
2021/12/27 08:16:24;;;;;;;23.55;5.88;;;3.90;99.90;;;;;;10242164;28;20082;-59
2021/12/27 08:21:29;;;;;;;24.08;6.68;;;3.90;99.90;;;;;;10247576;28;20054;-59
2021/12/27 08:26:30;;;;;;;20.52;5.95;;;4.00;99.90;;;;;;10239594;28;20728;-59
2021/12/27 08:31:32;;;;;;;20.88;5.97;;;4.00;99.90;;;;;;10249056;28;20101;-59
2021/12/27 08:36:34;;;;;;;22.85;5.10;;;4.10;99.90;;;;;;10242601;28;20106;-60
2021/12/27 08:41:35;;;;;;;16.30;5.50;;;4.10;99.90;;;;;;10239135;28;20075;-59
2021/12/27 08:46:37;;;;;;;14.52;5.28;;;4.20;99.90;;;;;;10248726;28;20719;-59
2021/12/27 08:51:39;;;;;;;17.42;5.13;;;4.20;99.90;;;;;;10243101;28;20051;-59
2021/12/27 08:56:41;;;;;;;18.88;4.78;;;4.20;99.90;;;;;;10246504;28;20067;-59
2021/12/27 09:01:42;;;;;;;23.30;6.20;;;4.20;99.90;;;;;;10245907;28;20155;-59
2021/12/27 09:06:44;;;;;;;19.08;5.55;;;4.30;99.90;;;;;;10248067;28;20094;-59
2021/12/27 09:11:46;;;;;;;12.77;5.00;;;4.40;99.90;;;;;;10240407;28;20627;-59
2021/12/27 09:16:48;;;;;;;17.38;4.97;;;4.50;99.90;;;;;;10246527;28;20458;-59
2021/12/27 09:21:52;;;;;;;21.90;5.68;;;4.50;99.90;;;;;;10247163;28;20051;-59
2021/12/27 09:26:54;;;;;;;19.02;5.30;;;4.60;99.90;;;;;;10247937;28;20047;-59
2021/12/27 09:31:56;;;;;;;18.67;5.90;;;4.70;99.90;;;;;;10247023;28;20129;-60
2021/12/27 09:36:57;;;;;;;16.10;5.28;;;4.70;99.90;;;;;;10247601;28;20149;-59
2021/12/27 09:42:00;;;;;;;15.45;5.28;;;4.70;99.90;;;;;;10248501;28;20474;-59
2021/12/27 09:47:02;;;;;;;14.18;4.97;;;4.70;99.90;;;;;;10253037;28;20110;-59
2021/12/27 09:52:05;;;;;;;18.92;6.22;;;4.70;99.90;;;;;;10250269;28;20473;-60
2021/12/27 09:57:07;;;;;;;15.98;4.85;;;4.80;99.90;;;;;;10254694;28;20055;-59
2021/12/27 10:02:10;;;;;;;19.67;5.45;;;4.80;99.90;;;;;;10247773;28;20050;-60
2021/12/27 10:07:22;;;;;;;10.45;4.30;;;4.80;99.90;;;;;;10250159;28;20050;-59
2021/12/27 10:12:27;;;;;;;17.60;5.72;;;4.90;99.90;;;;;;10252979;28;20061;-59
2021/12/27 10:17:35;;;;;;;15.73;5.85;;;5.00;99.90;;;;;;10255842;28;20146;-59
2021/12/27 10:22:38;;;;;;;;;;;5.00;99.90;;;;;;10252526;28;20057;-59
2021/12/27 10:27:41;;;;;;;13.60;5.78;;;5.10;99.90;;;;;;10248905;28;19973;-58
2021/12/27 10:32:44;;;;;;;16.40;5.65;;;5.10;99.90;;;;;;10248379;28;20165;-60
2021/12/27 10:37:46;;;;;;;12.25;5.50;;;5.10;99.90;;;;;;10250238;28;20066;-60
2021/12/27 10:42:48;;;;;;;13.70;5.78;;;5.10;99.90;;;;;;10251678;28;20141;-59
2021/12/27 10:48:02;;;;;;;18.17;5.15;;;5.20;99.90;;;;;;10246751;28;20122;-60
2021/12/27 10:53:05;;;;;;;12.00;5.40;;;5.30;99.90;;;;;;10229204;28;20070;-61
2021/12/27 10:58:20;;;;;;;14.30;5.80;;;5.40;99.90;;;;;;10240838;28;20086;-60
2021/12/27 11:03:39;;;;;;;13.00;5.65;;;5.40;99.90;;;;;;10251196;28;20050;-60
2021/12/27 11:08:45;;;;;;;13.90;5.20;;;5.40;99.90;;;;;;10250737;28;20146;-59
2021/12/27 11:13:53;;;;;;;10.10;5.53;;;5.50;99.90;;;;;;10250551;28;20050;-60
2021/12/27 11:18:55;;;;;;;11.82;5.60;;;5.40;99.90;;;;;;10250170;28;20070;-62
2021/12/27 11:23:59;;;;;;;12.95;5.32;;;5.50;99.90;;;;;;10251328;28;20466;-60
2021/12/27 11:29:15;;;;;;;18.50;5.80;;;5.50;99.90;;;;;;10241720;28;20061;-60
2021/12/27 11:34:19;;;;;;;12.75;5.75;;;5.50;99.90;;;;;;10248421;28;20078;-60
2021/12/27 11:39:30;;;;;;;13.02;4.68;;;5.50;99.90;;;;;;10239951;28;20114;-60
2021/12/27 11:44:58;;;;;;;14.75;5.32;;;5.60;99.90;;;;;;10247471;28;20059;-60
2021/12/27 11:50:05;;;;;;;15.03;4.93;;;5.50;99.90;;;;;;10245534;28;20043;-60
2021/12/27 11:55:10;;;;;;;18.40;5.70;;;5.50;99.90;;;;;;10242681;28;20690;-60
2021/12/27 12:00:18;;;;;;;13.63;5.38;;;5.50;99.90;;;;;;10248084;28;20047;-61
2021/12/27 12:05:39;;;;;;;17.88;5.53;;;5.50;99.90;;;;;;10243999;28;20141;-59
2021/12/27 12:11:02;;;;;;;11.95;4.45;;;5.60;99.90;;;;;;10246142;28;20082;-58
2021/12/27 12:16:07;;;;;;;16.23;6.55;;;5.60;99.90;;;;;;10247093;28;20070;-59
2021/12/27 12:21:29;;;;;;;13.18;5.82;;;5.70;99.90;;;;;;10252468;28;20046;-59
2021/12/27 12:27:10;;;;;;;15.07;5.40;;;5.80;99.90;;;;;;10248460;28;20505;-59
2021/12/27 12:32:15;;;;;;;11.77;5.65;;;5.90;99.90;;;;;;10246917;28;20046;-60
2021/12/27 12:37:19;;;;;;;16.85;5.55;;;6.00;99.90;;;;;;10239200;28;20047;-59
2021/12/27 12:42:26;;;;;;;14.07;5.13;;;6.00;99.90;;;;;;10242563;28;20145;-59
2021/12/27 12:47:38;;;;;;;14.80;6.05;;;6.00;99.90;;;;;;10234273;28;20137;-61
2021/12/27 12:52:54;;;;;;;13.18;4.63;;;6.00;99.90;;;;;;10244658;28;20043;-60
2021/12/27 12:57:56;;;;;;;11.52;5.30;;;6.00;99.90;;;;;;10243545;28;20363;-60
2021/12/27 13:03:09;;;;;;;13.27;6.18;;;6.00;99.90;;;;;;10237160;28;20129;-61
2021/12/27 13:08:13;;;;;;;12.57;5.15;;;6.00;99.90;;;;;;10238466;28;20051;-60
2021/12/27 13:13:18;;;;;;;12.88;5.45;;;6.10;99.90;;;;;;10245781;28;20089;-61
2021/12/27 13:18:22;;;;;;;16.80;6.43;;;6.10;99.90;;;;;;10253871;28;20105;-60
2021/12/27 13:23:29;;;;;;;16.13;6.15;;;6.10;99.90;;;;;;10251659;28;20078;-59
2021/12/27 13:28:41;;;;;;;17.20;6.05;;;6.20;99.90;;;;;;10245367;28;20062;-59
2021/12/27 13:33:49;;;;;;;13.82;5.57;;;6.20;99.90;;;;;;10252689;28;20063;-59
2021/12/27 13:39:21;;;;;;;11.85;5.43;;;6.20;99.90;;;;;;10254222;28;20150;-60
2021/12/27 13:44:28;;;;;;;14.93;6.45;;;6.30;99.90;;;;;;10252465;28;20498;-60
2021/12/27 13:49:30;;;;;;;;;;;6.30;99.90;;;;;;10250271;28;20143;-60
2021/12/27 13:54:44;;;;;;;13.27;6.28;;;6.30;99.90;;;;;;10244639;28;20420;-60
2021/12/27 13:59:49;;;;;;;14.25;6.15;;;6.30;99.90;;;;;;10246239;28;20047;-62
2021/12/27 14:04:58;;;;;;;13.60;6.43;;;6.30;99.90;;;;;;10249002;28;21282;-60
2021/12/27 14:10:00;;;;;;;13.68;5.47;;;6.40;99.90;;;;;;10253317;28;20794;-61
2021/12/27 14:15:06;;;;;;;18.30;6.93;;;6.40;99.90;;;;;;10241888;28;20175;-60
2021/12/27 14:20:10;;;;;;;21.17;7.80;;;6.50;99.90;;;;;;10252606;28;20070;-59
2021/12/27 14:25:16;;;;;;;21.05;8.43;;;6.50;99.90;;;;;;10233446;28;20047;-60
2021/12/27 14:30:17;;;;;;;15.30;5.20;;;6.50;99.90;;;;;;10251892;28;20075;-60
2021/12/27 14:35:25;;;;;;;11.80;5.60;;;6.50;99.90;;;;;;10251986;28;20079;-60
2021/12/27 14:40:30;;;;;;;12.60;4.75;;;6.50;99.90;;;;;;10247244;28;20050;-59
2021/12/27 14:45:33;;;;;;;14.98;6.05;;;6.60;99.90;;;;;;10246198;28;20141;-60
2021/12/27 14:50:38;;;;;;;15.30;5.80;;;6.70;99.90;;;;;;10227163;28;20050;-59
2021/12/27 14:55:42;;;;;;;12.43;5.45;;;6.70;99.90;;;;;;10249836;28;20572;-60
2021/12/27 15:00:56;;;;;;;9.52;4.10;;;6.80;99.90;;;;;;10248088;28;20047;-60
2021/12/27 15:05:59;;;;;;;12.75;4.32;;;6.80;99.90;;;;;;10247441;28;20051;-60
2021/12/27 15:11:00;;;;;;;11.10;4.72;;;6.70;99.90;;;;;;10250050;28;20097;-60
2021/12/27 15:16:03;;;;;;;11.18;4.35;;;6.80;99.90;;;;;;10248246;28;20056;-60
2021/12/27 15:21:05;;;;;;;8.23;3.83;;;6.70;99.90;;;;;;10240620;28;20562;-62
2021/12/27 15:26:07;;;;;;;8.35;4.20;;;6.70;99.90;;;;;;10249479;28;20152;-60
2021/12/27 15:31:09;;;;;;;9.45;4.40;;;6.60;99.90;;;;;;10249430;28;20133;-60
2021/12/27 15:36:11;;;;;;;8.85;4.20;;;6.60;99.90;;;;;;10246526;28;20058;-60
2021/12/27 15:41:13;;;;;;;11.82;4.78;;;6.60;99.90;;;;;;10249830;28;20086;-60
2021/12/27 15:46:16;;;;;;;13.60;5.15;;;6.60;99.90;;;;;;10244900;28;20529;-60
2021/12/27 15:51:19;;;;;;;16.38;6.50;;;6.60;99.90;;;;;;10245750;28;20051;-59
2021/12/27 15:56:20;;;;;;;11.00;4.80;;;6.50;99.90;;;;;;10223821;28;20138;-58
2021/12/27 16:01:22;;;;;;;11.70;5.53;;;6.50;99.90;;;;;;10243629;28;20078;-60
2021/12/27 16:06:24;;;;;;;9.65;4.47;;;6.50;99.90;;;;;;10248013;28;20070;-59
2021/12/27 16:11:26;;;;;;;11.50;5.05;;;6.50;99.90;;;;;;10243824;28;20178;-58
2021/12/27 16:16:28;;;;;;;14.38;4.30;;;6.50;99.90;;;;;;10242598;28;20055;-58
2021/12/27 16:21:30;;;;;;;10.80;4.70;;;6.50;99.90;;;;;;10242357;28;20078;-59
2021/12/27 16:26:31;;;;;;;13.07;5.35;;;6.50;99.90;;;;;;10248455;28;20087;-59
2021/12/27 16:31:33;;;;;;;10.20;5.30;;;6.40;99.90;;;;;;10236408;28;20166;-58
2021/12/27 16:36:36;;;;;;;12.32;5.30;;;6.40;99.90;;;;;;10246807;28;20133;-59
2021/12/27 16:41:38;;;;;;;19.98;7.75;;;6.40;99.90;;;;;;10247958;28;20051;-59
2021/12/27 16:46:40;;;;;;;9.25;4.40;;;6.40;99.90;;;;;;10246851;28;20051;-58
2021/12/27 16:51:42;;;;;;;13.75;5.43;;;6.40;99.90;;;;;;10242796;28;20055;-60
2021/12/27 16:56:45;;;;;;;12.57;5.30;;;6.40;99.90;;;;;;10248895;28;20122;-60
2021/12/27 17:01:46;;;;;;;10.10;4.57;;;6.30;99.90;;;;;;10253863;28;20086;-57
2021/12/27 17:06:48;;;;;;;9.98;4.78;;;6.30;99.90;;;;;;10250422;28;20083;-59
2021/12/27 17:11:50;;;;;;;10.40;5.43;;;6.30;99.90;;;;;;10256232;28;20150;-59
2021/12/27 17:16:53;;;;;;;9.77;4.75;;;6.30;99.90;;;;;;10255674;28;20465;-59
2021/12/27 17:21:55;;;;;;;12.40;5.43;;;6.30;99.90;;;;;;10253360;28;20126;-59
2021/12/27 17:26:57;;;;;;;9.43;4.68;;;6.20;99.90;;;;;;10255254;28;20170;-59
2021/12/27 17:31:59;;;;;;;12.80;5.05;;;6.20;99.90;;;;;;10250302;28;20109;-59
2021/12/27 17:37:01;;;;;;;12.20;5.38;;;6.20;99.90;;;;;;10255909;28;20153;-60
2021/12/27 17:42:05;;;;;;;12.35;5.45;;;6.20;99.90;;;;;;10254233;28;20074;-60
2021/12/27 17:47:06;;;;;;;10.32;4.80;;;6.20;99.90;;;;;;10253291;28;20054;-58
2021/12/27 17:52:09;;;;;;;10.95;5.38;;;6.20;99.90;;;;;;10251739;28;20054;-58
2021/12/27 17:57:10;;;;;;;15.25;5.68;;;6.20;99.90;;;;;;10237225;28;20129;-59
2021/12/27 18:02:27;;;;;;;12.73;5.88;;;6.20;99.90;;;;;;10248445;28;20061;-58
2021/12/27 18:07:30;;;;;;;12.55;6.57;;;6.20;99.90;;;;;;10255384;28;20141;-60
2021/12/27 18:12:35;;;;;;;14.43;6.53;;;6.20;99.90;;;;;;10246570;28;20057;-59
2021/12/27 18:17:37;;;;;;;14.73;5.93;;;6.20;99.90;;;;;;10250715;28;20054;-58
2021/12/27 18:22:40;;;;;;;12.45;6.00;;;6.20;99.90;;;;;;10248242;28;20078;-58
2021/12/27 18:27:42;;;;;;;16.33;6.38;;;6.20;99.90;;;;;;10251971;28;20118;-59
2021/12/27 18:32:44;;;;;;;17.77;7.10;;;6.20;99.90;;;;;;10253917;28;20629;-59
2021/12/27 18:37:48;;;;;;;15.82;6.75;;;6.20;99.90;;;;;;10249046;28;20067;-59
2021/12/27 18:42:51;;;;;;;19.95;7.40;;;6.20;99.90;;;;;;10251968;28;20081;-58
2021/12/27 18:47:53;;;;;;;16.48;7.45;;;6.30;99.90;;;;;;10246447;28;20113;-59
2021/12/27 18:52:56;;;;;;;17.98;7.65;;;6.20;99.90;;;;;;10234747;28;20058;-58
2021/12/27 18:57:58;;;;;;;20.73;8.27;;;6.20;99.90;;;;;;10250917;28;20125;-59
2021/12/27 19:03:01;;;;;;;17.15;7.47;;;6.20;99.90;;;;;;10248150;28;20054;-60
2021/12/27 19:08:04;;;;;;;17.35;8.02;;;6.20;99.90;;;;;;10247620;28;20844;-59
2021/12/27 19:13:05;;;;;;;19.48;9.15;;;6.20;99.90;;;;;;10251566;28;20050;-60
2021/12/27 19:18:07;;;;;;;21.50;7.95;;;6.30;99.90;;;;;;10247858;28;20078;-60
2021/12/27 19:23:09;;;;;;;23.35;8.48;;;6.20;99.90;;;;;;10245429;28;20047;-60
2021/12/27 19:28:11;;;;;;;19.15;8.23;;;6.20;99.90;;;;;;10244459;28;20074;-60
2021/12/27 19:33:12;;;;;;;24.73;10.57;;;6.30;99.90;;;;;;10245639;28;20082;-60
2021/12/27 19:38:15;;;;;;;19.45;9.00;;;6.30;99.90;;;;;;10248497;28;20077;-60
2021/12/27 19:43:18;;;;;;;22.02;8.23;;;6.20;99.90;;;;;;10244879;28;20143;-60
2021/12/27 19:48:20;;;;;;;19.33;8.13;;;6.30;99.90;;;;;;10244507;28;20054;-60
2021/12/27 19:53:22;;;;;;;21.63;8.77;;;6.30;99.90;;;;;;10247839;28;20137;-60
2021/12/27 19:58:23;;;;;;;24.42;8.77;;;6.30;99.90;;;;;;10242912;28;20263;-60
2021/12/27 20:03:25;;;;;;;25.40;8.55;;;6.30;99.90;;;;;;10246802;28;20110;-60
2021/12/27 20:08:27;;;;;;;22.95;8.80;;;6.30;99.90;;;;;;10244420;28;20098;-60
2021/12/27 20:13:34;;;;;;;23.08;10.13;;;6.30;99.90;;;;;;10249151;28;20185;-60
2021/12/27 20:18:36;;;;;;;23.15;8.90;;;6.40;99.90;;;;;;10244924;28;20075;-60
2021/12/27 20:23:37;;;;;;;27.58;9.75;;;6.40;99.90;;;;;;10245747;28;20083;-60
2021/12/27 20:28:39;;;;;;;26.67;9.35;;;6.40;99.90;;;;;;10247597;28;20458;-60
2021/12/27 20:33:41;;;;;;;22.08;8.85;;;6.50;99.90;;;;;;10245915;28;20080;-60
2021/12/27 20:38:42;;;;;;;21.45;9.05;;;6.50;99.90;;;;;;10242769;28;20058;-61
2021/12/27 20:43:45;;;;;;;21.50;9.48;;;6.50;99.90;;;;;;10240921;28;20058;-60
2021/12/27 20:48:47;;;;;;;24.38;9.93;;;6.50;99.90;;;;;;10242072;28;20079;-59
2021/12/27 20:53:48;;;;;;;23.30;8.85;;;6.60;99.90;;;;;;10242387;28;20087;-60
2021/12/27 20:58:50;;;;;;;25.70;9.73;;;6.60;99.90;;;;;;10232709;28;20055;-59
2021/12/27 21:03:53;;;;;;;24.42;8.88;;;6.60;99.90;;;;;;10250975;28;20066;-60
2021/12/27 21:08:55;;;;;;;26.65;8.93;;;6.60;99.90;;;;;;10250240;28;20078;-61
2021/12/27 21:13:57;;;;;;;30.83;9.70;;;6.60;99.90;;;;;;10245352;28;20110;-60
2021/12/27 21:19:01;;;;;;;27.10;10.93;;;6.60;99.90;;;;;;10246794;28;20074;-61
2021/12/27 21:24:04;;;;;;;21.83;9.35;;;6.60;99.90;;;;;;10245905;28;20043;-60
2021/12/27 21:29:07;;;;;;;24.63;8.30;;;6.60;99.90;;;;;;10251539;28;20122;-60
2021/12/27 21:34:09;;;;;;;21.25;9.15;;;6.60;99.90;;;;;;10250679;28;20110;-61
2021/12/27 21:39:10;;;;;;;24.38;9.07;;;6.60;99.90;;;;;;10238853;28;20042;-61
2021/12/27 21:44:12;;;;;;;23.05;10.32;;;6.60;99.90;;;;;;10253466;28;20077;-60
2021/12/27 21:49:14;;;;;;;40.45;10.88;;;6.60;99.90;;;;;;10245950;28;20050;-60
2021/12/27 21:54:17;;;;;;;55.20;15.90;;;6.50;99.90;;;;;;10235305;28;20039;-60
2021/12/27 21:59:19;;;;;;;36.17;11.75;;;6.60;99.90;;;;;;10241026;28;20043;-60
2021/12/27 22:04:21;;;;;;;29.42;10.02;;;6.50;99.90;;;;;;10247973;28;20051;-60
2021/12/27 22:09:23;;;;;;;30.40;10.18;;;6.60;99.90;;;;;;10247076;28;20087;-59
2021/12/27 22:14:26;;;;;;;24.98;9.57;;;6.70;99.90;;;;;;10249583;28;20846;-59
2021/12/27 22:19:27;;;;;;;26.02;10.40;;;6.70;99.90;;;;;;10254164;28;20058;-58
2021/12/27 22:24:29;;;;;;;25.80;9.63;;;6.80;99.90;;;;;;10251345;28;20063;-59
2021/12/27 22:29:31;;;;;;;25.65;9.57;;;6.80;99.90;;;;;;10252661;28;20110;-59
2021/12/27 22:34:32;;;;;;;27.25;8.70;;;6.80;99.90;;;;;;10243877;28;20150;-59
2021/12/27 22:39:34;;;;;;;32.95;11.05;;;6.80;99.90;;;;;;10248815;28;20126;-59
2021/12/27 22:44:36;;;;;;;31.15;10.35;;;6.80;99.90;;;;;;10245629;28;20114;-59
2021/12/27 22:49:38;;;;;;;23.30;9.02;;;6.80;99.90;;;;;;10252890;28;20283;-58
2021/12/27 22:54:40;;;;;;;24.50;9.18;;;6.80;99.90;;;;;;10247207;28;20138;-59
2021/12/27 22:59:41;;;;;;;29.67;9.77;;;6.80;99.90;;;;;;10252068;28;20207;-59
2021/12/27 23:04:43;;;;;;;31.65;9.85;;;6.80;99.90;;;;;;10250561;28;20085;-59
2021/12/27 23:09:45;;;;;;;29.00;9.82;;;6.90;99.90;;;;;;10247641;28;20100;-60
2021/12/27 23:14:47;;;;;;;25.25;9.18;;;6.90;99.90;;;;;;10243720;28;20524;-60
2021/12/27 23:19:48;;;;;;;22.52;8.35;;;6.90;99.90;;;;;;10245532;28;20055;-60
2021/12/27 23:24:51;;;;;;;22.88;9.55;;;6.90;99.90;;;;;;10245254;28;20466;-60
2021/12/27 23:29:53;;;;;;;26.25;9.52;;;6.90;99.90;;;;;;10245202;28;20788;-59
2021/12/27 23:34:54;;;;;;;25.35;9.68;;;6.90;99.90;;;;;;10244225;28;20142;-59
2021/12/27 23:39:56;;;;;;;25.27;9.23;;;6.90;99.90;;;;;;10248459;28;20078;-59
2021/12/27 23:44:58;;;;;;;30.40;9.50;;;6.90;99.90;;;;;;10247256;28;20125;-59
2021/12/27 23:50:00;;;;;;;21.90;8.45;;;6.90;99.90;;;;;;10251056;28;20050;-60
2021/12/27 23:55:02;;;;;;;21.90;8.75;;;6.80;99.90;;;;;;10245881;28;20043;-60
